Aviation Digital Data Service (ADDS)

Output produced by METARs form (1640 UTC 02 September 2014)
found at http://aviationweather.gov/adds/metars/
 
KBGR 021420Z 0214/0312 18004KT 2SM BR OVC004 
     FM021500 18004KT 2SM BR OVC006 
     FM021600 18008KT P6SM OVC008 
     FM021700 18008KT P6SM BKN020 
     FM021800 18010KT P6SM BKN040 
     FM030200 18010KT 4SM BR VCSH OVC008 
     FM030400 20008KT 2SM -SHRA BR OVC004 
     FM030600 22008KT 1SM -SHRA BR OVC002 
     FM031000 27008KT 3SM -SHRA BR OVC005